sensor_id;sensor_type;location;lat;lon;timestamp;P1;durP1;ratioP1;P2;durP2;ratioP2
29776;SDS011;16677;52.224;7.484;2023-03-13T00:01:36;21.55;;;7.05;;
29776;SDS011;16677;52.224;7.484;2023-03-13T00:04:12;23.17;;;7.10;;
29776;SDS011;16677;52.224;7.484;2023-03-13T00:06:40;20.20;;;6.50;;
29776;SDS011;16677;52.224;7.484;2023-03-13T00:09:08;21.15;;;6.50;;
29776;SDS011;16677;52.224;7.484;2023-03-13T00:11:38;21.50;;;6.88;;
29776;SDS011;16677;52.224;7.484;2023-03-13T00:14:07;22.27;;;7.15;;
29776;SDS011;16677;52.224;7.484;2023-03-13T00:16:36;23.27;;;6.93;;
29776;SDS011;16677;52.224;7.484;2023-03-13T00:19:06;22.85;;;6.80;;
29776;SDS011;16677;52.224;7.484;2023-03-13T00:21:34;23.80;;;7.32;;
29776;SDS011;16677;52.224;7.484;2023-03-13T00:24:08;21.15;;;6.82;;
29776;SDS011;16677;52.224;7.484;2023-03-13T00:26:36;23.45;;;6.82;;
29776;SDS011;16677;52.224;7.484;2023-03-13T00:29:04;25.67;;;6.60;;
29776;SDS011;16677;52.224;7.484;2023-03-13T00:31:31;22.80;;;6.88;;
29776;SDS011;16677;52.224;7.484;2023-03-13T00:34:00;20.77;;;6.57;;
29776;SDS011;16677;52.224;7.484;2023-03-13T00:36:30;22.35;;;7.00;;
29776;SDS011;16677;52.224;7.484;2023-03-13T00:38:59;21.40;;;6.88;;
29776;SDS011;16677;52.224;7.484;2023-03-13T00:41:30;20.10;;;6.40;;
29776;SDS011;16677;52.224;7.484;2023-03-13T00:43:59;21.85;;;6.88;;
29776;SDS011;16677;52.224;7.484;2023-03-13T00:46:27;22.20;;;7.00;;
29776;SDS011;16677;52.224;7.484;2023-03-13T00:48:56;22.15;;;6.88;;
29776;SDS011;16677;52.224;7.484;2023-03-13T00:51:26;22.02;;;6.90;;
29776;SDS011;16677;52.224;7.484;2023-03-13T00:53:55;29.75;;;7.38;;
29776;SDS011;16677;52.224;7.484;2023-03-13T00:56:27;23.75;;;6.85;;
29776;SDS011;16677;52.224;7.484;2023-03-13T00:58:54;21.42;;;6.93;;
29776;SDS011;16677;52.224;7.484;2023-03-13T01:01:23;23.63;;;6.68;;
29776;SDS011;16677;52.224;7.484;2023-03-13T01:03:55;24.45;;;7.03;;
29776;SDS011;16677;52.224;7.484;2023-03-13T01:06:28;24.17;;;6.95;;
29776;SDS011;16677;52.224;7.484;2023-03-13T01:08:58;20.95;;;6.95;;
29776;SDS011;16677;52.224;7.484;2023-03-13T01:11:30;25.35;;;7.60;;
29776;SDS011;16677;52.224;7.484;2023-03-13T01:14:02;25.10;;;7.60;;
29776;SDS011;16677;52.224;7.484;2023-03-13T01:16:33;26.08;;;7.10;;
29776;SDS011;16677;52.224;7.484;2023-03-13T01:19:04;26.63;;;7.22;;
29776;SDS011;16677;52.224;7.484;2023-03-13T01:21:39;21.02;;;7.18;;
29776;SDS011;16677;52.224;7.484;2023-03-13T01:24:10;25.45;;;7.13;;
29776;SDS011;16677;52.224;7.484;2023-03-13T01:26:38;20.90;;;6.95;;
29776;SDS011;16677;52.224;7.484;2023-03-13T01:29:06;24.33;;;7.13;;
29776;SDS011;16677;52.224;7.484;2023-03-13T01:31:34;23.73;;;7.32;;
29776;SDS011;16677;52.224;7.484;2023-03-13T01:34:03;24.08;;;7.22;;
29776;SDS011;16677;52.224;7.484;2023-03-13T01:36:34;25.67;;;6.97;;
29776;SDS011;16677;52.224;7.484;2023-03-13T01:39:03;26.50;;;7.93;;
29776;SDS011;16677;52.224;7.484;2023-03-13T01:41:32;28.05;;;7.65;;
29776;SDS011;16677;52.224;7.484;2023-03-13T01:43:59;24.52;;;7.35;;
29776;SDS011;16677;52.224;7.484;2023-03-13T01:46:29;23.38;;;7.63;;
29776;SDS011;16677;52.224;7.484;2023-03-13T01:54:23;22.60;;;7.18;;
29776;SDS011;16677;52.224;7.484;2023-03-13T01:59:31;26.98;;;7.43;;
29776;SDS011;16677;52.224;7.484;2023-03-13T02:02:12;25.70;;;7.47;;
29776;SDS011;16677;52.224;7.484;2023-03-13T02:04:45;24.58;;;7.57;;
29776;SDS011;16677;52.224;7.484;2023-03-13T02:07:26;22.92;;;6.75;;
29776;SDS011;16677;52.224;7.484;2023-03-13T02:10:12;24.93;;;7.23;;
29776;SDS011;16677;52.224;7.484;2023-03-13T02:12:43;23.63;;;6.68;;
29776;SDS011;16677;52.224;7.484;2023-03-13T02:15:18;25.92;;;6.93;;
29776;SDS011;16677;52.224;7.484;2023-03-13T02:17:48;23.70;;;7.00;;
29776;SDS011;16677;52.224;7.484;2023-03-13T02:20:17;25.55;;;7.40;;
29776;SDS011;16677;52.224;7.484;2023-03-13T02:22:51;24.33;;;6.95;;
29776;SDS011;16677;52.224;7.484;2023-03-13T02:25:47;28.27;;;7.43;;
29776;SDS011;16677;52.224;7.484;2023-03-13T02:28:18;29.13;;;7.20;;
29776;SDS011;16677;52.224;7.484;2023-03-13T02:30:50;27.33;;;7.43;;
29776;SDS011;16677;52.224;7.484;2023-03-13T02:33:21;29.98;;;8.00;;
29776;SDS011;16677;52.224;7.484;2023-03-13T02:35:57;25.42;;;6.72;;
29776;SDS011;16677;52.224;7.484;2023-03-13T02:38:28;28.73;;;7.72;;
29776;SDS011;16677;52.224;7.484;2023-03-13T02:40:58;22.40;;;7.30;;
29776;SDS011;16677;52.224;7.484;2023-03-13T02:43:34;25.67;;;7.82;;
29776;SDS011;16677;52.224;7.484;2023-03-13T02:46:07;26.00;;;8.05;;
29776;SDS011;16677;52.224;7.484;2023-03-13T02:48:45;26.93;;;8.27;;
29776;SDS011;16677;52.224;7.484;2023-03-13T02:51:21;27.27;;;8.82;;
29776;SDS011;16677;52.224;7.484;2023-03-13T02:53:59;25.95;;;8.88;;
29776;SDS011;16677;52.224;7.484;2023-03-13T02:56:39;28.23;;;9.57;;
29776;SDS011;16677;52.224;7.484;2023-03-13T02:59:09;26.42;;;9.40;;
29776;SDS011;16677;52.224;7.484;2023-03-13T03:01:37;23.95;;;10.13;;
29776;SDS011;16677;52.224;7.484;2023-03-13T03:04:04;25.40;;;10.15;;
29776;SDS011;16677;52.224;7.484;2023-03-13T03:06:31;23.98;;;10.43;;
29776;SDS011;16677;52.224;7.484;2023-03-13T03:08:59;24.38;;;10.95;;
29776;SDS011;16677;52.224;7.484;2023-03-13T03:11:26;20.95;;;10.55;;
29776;SDS011;16677;52.224;7.484;2023-03-13T03:13:54;22.10;;;10.27;;
29776;SDS011;16677;52.224;7.484;2023-03-13T03:16:21;24.35;;;11.40;;
29776;SDS011;16677;52.224;7.484;2023-03-13T03:18:48;22.85;;;10.80;;
29776;SDS011;16677;52.224;7.484;2023-03-13T03:21:15;20.55;;;10.93;;
29776;SDS011;16677;52.224;7.484;2023-03-13T03:23:43;20.05;;;10.63;;
29776;SDS011;16677;52.224;7.484;2023-03-13T03:26:10;21.60;;;10.97;;
29776;SDS011;16677;52.224;7.484;2023-03-13T03:28:37;19.90;;;10.43;;
29776;SDS011;16677;52.224;7.484;2023-03-13T03:31:05;19.45;;;11.30;;
29776;SDS011;16677;52.224;7.484;2023-03-13T03:33:36;22.33;;;10.52;;
29776;SDS011;16677;52.224;7.484;2023-03-13T03:36:08;18.55;;;10.90;;
29776;SDS011;16677;52.224;7.484;2023-03-13T03:38:43;17.17;;;11.50;;
29776;SDS011;16677;52.224;7.484;2023-03-13T03:41:13;18.13;;;11.15;;
29776;SDS011;16677;52.224;7.484;2023-03-13T03:43:46;18.80;;;11.15;;
29776;SDS011;16677;52.224;7.484;2023-03-13T03:46:13;17.50;;;11.38;;
29776;SDS011;16677;52.224;7.484;2023-03-13T03:48:56;20.55;;;12.10;;
29776;SDS011;16677;52.224;7.484;2023-03-13T03:51:23;18.50;;;12.52;;
29776;SDS011;16677;52.224;7.484;2023-03-13T03:53:50;18.77;;;12.17;;
29776;SDS011;16677;52.224;7.484;2023-03-13T03:56:21;18.50;;;13.57;;
29776;SDS011;16677;52.224;7.484;2023-03-13T03:58:48;19.63;;;14.15;;
29776;SDS011;16677;52.224;7.484;2023-03-13T04:01:18;18.73;;;15.23;;
29776;SDS011;16677;52.224;7.484;2023-03-13T04:03:45;18.92;;;15.23;;
29776;SDS011;16677;52.224;7.484;2023-03-13T04:06:14;18.20;;;16.38;;
29776;SDS011;16677;52.224;7.484;2023-03-13T04:08:41;19.87;;;16.47;;
29776;SDS011;16677;52.224;7.484;2023-03-13T04:11:08;20.33;;;17.25;;
29776;SDS011;16677;52.224;7.484;2023-03-13T04:13:36;20.65;;;18.45;;
29776;SDS011;16677;52.224;7.484;2023-03-13T04:16:07;21.80;;;19.57;;
29776;SDS011;16677;52.224;7.484;2023-03-13T04:18:35;23.50;;;21.17;;
29776;SDS011;16677;52.224;7.484;2023-03-13T04:21:03;26.02;;;23.33;;
29776;SDS011;16677;52.224;7.484;2023-03-13T04:23:34;25.50;;;22.95;;
29776;SDS011;16677;52.224;7.484;2023-03-13T04:26:06;27.33;;;24.55;;
29776;SDS011;16677;52.224;7.484;2023-03-13T04:28:33;27.98;;;25.20;;
29776;SDS011;16677;52.224;7.484;2023-03-13T04:31:00;26.33;;;23.63;;
29776;SDS011;16677;52.224;7.484;2023-03-13T04:33:28;26.40;;;23.60;;
29776;SDS011;16677;52.224;7.484;2023-03-13T04:35:55;26.83;;;24.02;;
29776;SDS011;16677;52.224;7.484;2023-03-13T04:38:25;26.45;;;23.92;;
29776;SDS011;16677;52.224;7.484;2023-03-13T04:40:52;27.65;;;24.75;;
29776;SDS011;16677;52.224;7.484;2023-03-13T04:43:19;26.90;;;24.05;;
29776;SDS011;16677;52.224;7.484;2023-03-13T04:45:46;24.02;;;21.63;;
29776;SDS011;16677;52.224;7.484;2023-03-13T04:48:15;24.17;;;21.73;;
29776;SDS011;16677;52.224;7.484;2023-03-13T04:50:42;23.55;;;21.27;;
29776;SDS011;16677;52.224;7.484;2023-03-13T04:53:12;22.52;;;20.33;;
29776;SDS011;16677;52.224;7.484;2023-03-13T04:55:40;19.63;;;17.55;;
29776;SDS011;16677;52.224;7.484;2023-03-13T04:58:07;18.67;;;16.70;;
29776;SDS011;16677;52.224;7.484;2023-03-13T05:00:41;17.08;;;15.40;;
29776;SDS011;16677;52.224;7.484;2023-03-13T05:03:08;16.88;;;15.18;;
29776;SDS011;16677;52.224;7.484;2023-03-13T05:08:09;14.77;;;13.25;;
29776;SDS011;16677;52.224;7.484;2023-03-13T05:10:37;14.00;;;12.65;;
29776;SDS011;16677;52.224;7.484;2023-03-13T05:13:08;11.43;;;10.23;;
29776;SDS011;16677;52.224;7.484;2023-03-13T05:15:35;11.00;;;10.00;;
29776;SDS011;16677;52.224;7.484;2023-03-13T05:18:03;10.82;;;9.50;;
29776;SDS011;16677;52.224;7.484;2023-03-13T05:20:35;9.65;;;8.52;;
29776;SDS011;16677;52.224;7.484;2023-03-13T05:23:08;9.90;;;9.00;;
29776;SDS011;16677;52.224;7.484;2023-03-13T05:25:40;9.80;;;8.80;;
29776;SDS011;16677;52.224;7.484;2023-03-13T05:28:07;9.65;;;8.63;;
29776;SDS011;16677;52.224;7.484;2023-03-13T05:30:35;8.73;;;7.90;;
29776;SDS011;16677;52.224;7.484;2023-03-13T05:33:03;9.00;;;7.72;;
29776;SDS011;16677;52.224;7.484;2023-03-13T05:35:30;8.02;;;7.20;;
29776;SDS011;16677;52.224;7.484;2023-03-13T05:37:57;7.68;;;6.90;;
29776;SDS011;16677;52.224;7.484;2023-03-13T05:40:24;7.43;;;6.80;;
29776;SDS011;16677;52.224;7.484;2023-03-13T05:42:52;7.10;;;6.40;;
29776;SDS011;16677;52.224;7.484;2023-03-13T05:45:22;8.03;;;7.23;;
29776;SDS011;16677;52.224;7.484;2023-03-13T05:47:53;7.15;;;6.45;;
29776;SDS011;16677;52.224;7.484;2023-03-13T05:50:20;6.63;;;6.03;;
29776;SDS011;16677;52.224;7.484;2023-03-13T05:52:50;6.50;;;5.88;;
29776;SDS011;16677;52.224;7.484;2023-03-13T05:55:17;6.72;;;5.88;;
29776;SDS011;16677;52.224;7.484;2023-03-13T05:57:48;6.30;;;5.70;;
29776;SDS011;16677;52.224;7.484;2023-03-13T06:00:18;6.20;;;4.95;;
29776;SDS011;16677;52.224;7.484;2023-03-13T06:02:46;6.80;;;5.63;;
29776;SDS011;16677;52.224;7.484;2023-03-13T06:05:14;6.83;;;6.20;;
29776;SDS011;16677;52.224;7.484;2023-03-13T06:07:41;5.93;;;5.43;;
29776;SDS011;16677;52.224;7.484;2023-03-13T06:10:10;6.50;;;5.90;;
29776;SDS011;16677;52.224;7.484;2023-03-13T06:12:38;6.40;;;5.80;;
29776;SDS011;16677;52.224;7.484;2023-03-13T06:15:06;6.72;;;5.88;;
29776;SDS011;16677;52.224;7.484;2023-03-13T06:17:37;6.65;;;5.90;;
29776;SDS011;16677;52.224;7.484;2023-03-13T06:20:05;6.97;;;5.93;;
29776;SDS011;16677;52.224;7.484;2023-03-13T06:22:32;6.68;;;6.07;;
29776;SDS011;16677;52.224;7.484;2023-03-13T06:25:05;7.20;;;6.50;;
29776;SDS011;16677;52.224;7.484;2023-03-13T06:27:34;7.07;;;6.38;;
29776;SDS011;16677;52.224;7.484;2023-03-13T06:30:01;7.10;;;6.40;;
29776;SDS011;16677;52.224;7.484;2023-03-13T06:32:31;6.72;;;6.03;;
29776;SDS011;16677;52.224;7.484;2023-03-13T06:35:02;7.28;;;5.72;;
29776;SDS011;16677;52.224;7.484;2023-03-13T06:37:30;6.57;;;5.78;;
29776;SDS011;16677;52.224;7.484;2023-03-13T06:39:58;6.57;;;5.38;;
29776;SDS011;16677;52.224;7.484;2023-03-13T06:42:25;6.50;;;5.65;;
29776;SDS011;16677;52.224;7.484;2023-03-13T06:44:52;6.05;;;5.45;;
29776;SDS011;16677;52.224;7.484;2023-03-13T06:47:19;5.63;;;5.05;;
29776;SDS011;16677;52.224;7.484;2023-03-13T06:49:47;7.60;;;5.63;;
29776;SDS011;16677;52.224;7.484;2023-03-13T06:52:15;6.97;;;6.15;;
29776;SDS011;16677;52.224;7.484;2023-03-13T06:54:45;6.82;;;5.40;;
29776;SDS011;16677;52.224;7.484;2023-03-13T06:57:14;7.97;;;6.10;;
29776;SDS011;16677;52.224;7.484;2023-03-13T06:59:43;6.63;;;5.90;;
29776;SDS011;16677;52.224;7.484;2023-03-13T07:02:11;6.95;;;6.10;;
29776;SDS011;16677;52.224;7.484;2023-03-13T07:04:39;6.22;;;5.63;;
29776;SDS011;16677;52.224;7.484;2023-03-13T07:07:08;7.40;;;6.13;;
29776;SDS011;16677;52.224;7.484;2023-03-13T07:09:54;7.22;;;6.00;;
29776;SDS011;16677;52.224;7.484;2023-03-13T07:12:22;7.18;;;5.70;;
29776;SDS011;16677;52.224;7.484;2023-03-13T07:14:49;7.60;;;5.93;;
29776;SDS011;16677;52.224;7.484;2023-03-13T07:17:16;8.10;;;5.00;;
29776;SDS011;16677;52.224;7.484;2023-03-13T07:19:43;7.38;;;5.50;;
29776;SDS011;16677;52.224;7.484;2023-03-13T07:22:10;6.72;;;5.05;;
29776;SDS011;16677;52.224;7.484;2023-03-13T07:24:38;7.67;;;4.80;;
29776;SDS011;16677;52.224;7.484;2023-03-13T07:27:07;7.15;;;4.65;;
29776;SDS011;16677;52.224;7.484;2023-03-13T07:29:34;7.17;;;4.40;;
29776;SDS011;16677;52.224;7.484;2023-03-13T07:32:11;6.43;;;4.50;;
29776;SDS011;16677;52.224;7.484;2023-03-13T07:34:38;7.27;;;4.47;;
29776;SDS011;16677;52.224;7.484;2023-03-13T07:37:10;7.10;;;4.55;;
29776;SDS011;16677;52.224;7.484;2023-03-13T07:39:38;6.23;;;4.23;;
29776;SDS011;16677;52.224;7.484;2023-03-13T07:42:06;6.37;;;4.47;;
29776;SDS011;16677;52.224;7.484;2023-03-13T07:44:36;6.72;;;4.10;;
29776;SDS011;16677;52.224;7.484;2023-03-13T07:47:03;6.33;;;4.23;;
29776;SDS011;16677;52.224;7.484;2023-03-13T07:49:32;6.70;;;3.95;;
29776;SDS011;16677;52.224;7.484;2023-03-13T07:52:04;5.50;;;4.10;;
29776;SDS011;16677;52.224;7.484;2023-03-13T07:54:32;7.07;;;4.03;;
29776;SDS011;16677;52.224;7.484;2023-03-13T07:57:00;7.57;;;3.97;;
29776;SDS011;16677;52.224;7.484;2023-03-13T07:59:28;5.40;;;4.10;;
29776;SDS011;16677;52.224;7.484;2023-03-13T08:01:56;6.55;;;4.07;;
29776;SDS011;16677;52.224;7.484;2023-03-13T08:04:25;6.68;;;3.80;;
29776;SDS011;16677;52.224;7.484;2023-03-13T08:06:52;7.38;;;4.10;;
29776;SDS011;16677;52.224;7.484;2023-03-13T08:09:20;6.80;;;3.85;;
29776;SDS011;16677;52.224;7.484;2023-03-13T08:11:47;7.03;;;3.80;;
29776;SDS011;16677;52.224;7.484;2023-03-13T08:14:14;6.70;;;4.10;;
29776;SDS011;16677;52.224;7.484;2023-03-13T08:16:41;8.55;;;4.28;;
29776;SDS011;16677;52.224;7.484;2023-03-13T08:19:09;5.60;;;3.35;;
29776;SDS011;16677;52.224;7.484;2023-03-13T08:21:36;7.15;;;4.05;;
29776;SDS011;16677;52.224;7.484;2023-03-13T08:24:06;6.57;;;3.73;;
29776;SDS011;16677;52.224;7.484;2023-03-13T08:26:37;6.70;;;3.70;;
29776;SDS011;16677;52.224;7.484;2023-03-13T08:29:10;6.90;;;3.78;;
29776;SDS011;16677;52.224;7.484;2023-03-13T08:31:44;6.13;;;3.67;;
29776;SDS011;16677;52.224;7.484;2023-03-13T08:34:15;5.80;;;3.63;;
29776;SDS011;16677;52.224;7.484;2023-03-13T08:36:43;5.80;;;3.88;;
29776;SDS011;16677;52.224;7.484;2023-03-13T08:39:15;6.45;;;3.35;;
29776;SDS011;16677;52.224;7.484;2023-03-13T08:41:46;6.90;;;3.60;;
29776;SDS011;16677;52.224;7.484;2023-03-13T08:44:14;7.90;;;4.03;;
29776;SDS011;16677;52.224;7.484;2023-03-13T08:46:45;7.10;;;3.50;;
29776;SDS011;16677;52.224;7.484;2023-03-13T08:49:14;7.55;;;3.65;;
29776;SDS011;16677;52.224;7.484;2023-03-13T08:51:43;9.18;;;3.70;;
29776;SDS011;16677;52.224;7.484;2023-03-13T08:54:10;5.82;;;3.78;;
29776;SDS011;16677;52.224;7.484;2023-03-13T08:56:37;7.95;;;3.58;;
29776;SDS011;16677;52.224;7.484;2023-03-13T08:59:09;6.70;;;3.73;;
29776;SDS011;16677;52.224;7.484;2023-03-13T09:01:38;7.50;;;3.55;;
29776;SDS011;16677;52.224;7.484;2023-03-13T09:04:05;6.35;;;3.83;;
29776;SDS011;16677;52.224;7.484;2023-03-13T09:06:33;6.30;;;3.20;;
29776;SDS011;16677;52.224;7.484;2023-03-13T09:09:06;6.70;;;3.30;;
29776;SDS011;16677;52.224;7.484;2023-03-13T09:11:36;7.22;;;3.40;;
29776;SDS011;16677;52.224;7.484;2023-03-13T09:14:05;5.15;;;3.25;;
29776;SDS011;16677;52.224;7.484;2023-03-13T09:16:35;5.90;;;3.28;;
29776;SDS011;16677;52.224;7.484;2023-03-13T09:19:02;8.02;;;3.47;;
29776;SDS011;16677;52.224;7.484;2023-03-13T09:21:34;7.85;;;3.17;;
29776;SDS011;16677;52.224;7.484;2023-03-13T09:24:01;8.63;;;3.40;;
29776;SDS011;16677;52.224;7.484;2023-03-13T09:26:29;6.72;;;3.20;;
29776;SDS011;16677;52.224;7.484;2023-03-13T09:28:59;8.52;;;3.28;;
29776;SDS011;16677;52.224;7.484;2023-03-13T09:31:27;6.63;;;3.00;;
29776;SDS011;16677;52.224;7.484;2023-03-13T09:34:00;4.43;;;2.90;;
29776;SDS011;16677;52.224;7.484;2023-03-13T09:36:29;7.55;;;2.80;;
29776;SDS011;16677;52.224;7.484;2023-03-13T09:38:57;5.88;;;3.10;;
29776;SDS011;16677;52.224;7.484;2023-03-13T09:44:51;6.30;;;3.15;;
29776;SDS011;16677;52.224;7.484;2023-03-13T09:50:58;6.90;;;2.90;;
29776;SDS011;16677;52.224;7.484;2023-03-13T09:53:38;5.40;;;2.60;;
29776;SDS011;16677;52.224;7.484;2023-03-13T09:56:25;6.43;;;3.22;;
29776;SDS011;16677;52.224;7.484;2023-03-13T09:59:05;8.00;;;3.17;;
29776;SDS011;16677;52.224;7.484;2023-03-13T10:01:54;5.32;;;2.90;;
29776;SDS011;16677;52.224;7.484;2023-03-13T10:04:39;4.05;;;2.53;;
29776;SDS011;16677;52.224;7.484;2023-03-13T10:07:11;7.28;;;3.03;;
29776;SDS011;16677;52.224;7.484;2023-03-13T10:09:41;6.57;;;2.88;;
29776;SDS011;16677;52.224;7.484;2023-03-13T10:20:16;4.18;;;2.50;;
29776;SDS011;16677;52.224;7.484;2023-03-13T10:22:58;5.78;;;2.80;;
29776;SDS011;16677;52.224;7.484;2023-03-13T10:26:09;5.90;;;2.83;;
29776;SDS011;16677;52.224;7.484;2023-03-13T10:28:51;4.93;;;2.53;;
29776;SDS011;16677;52.224;7.484;2023-03-13T10:31:32;7.40;;;3.10;;
29776;SDS011;16677;52.224;7.484;2023-03-13T10:34:09;5.97;;;3.30;;
29776;SDS011;16677;52.224;7.484;2023-03-13T10:36:48;6.53;;;3.10;;
29776;SDS011;16677;52.224;7.484;2023-03-13T10:39:27;5.10;;;2.67;;
29776;SDS011;16677;52.224;7.484;2023-03-13T10:44:46;7.40;;;3.40;;
29776;SDS011;16677;52.224;7.484;2023-03-13T10:47:14;7.32;;;3.03;;
29776;SDS011;16677;52.224;7.484;2023-03-13T10:49:59;5.80;;;3.00;;
29776;SDS011;16677;52.224;7.484;2023-03-13T10:52:35;5.50;;;2.67;;
29776;SDS011;16677;52.224;7.484;2023-03-13T10:55:19;3.75;;;2.47;;
29776;SDS011;16677;52.224;7.484;2023-03-13T11:03:14;5.23;;;2.10;;
29776;SDS011;16677;52.224;7.484;2023-03-13T11:08:34;5.20;;;2.20;;
29776;SDS011;16677;52.224;7.484;2023-03-13T11:11:15;4.60;;;2.40;;
29776;SDS011;16677;52.224;7.484;2023-03-13T11:13:45;3.15;;;1.85;;
29776;SDS011;16677;52.224;7.484;2023-03-13T11:16:16;3.43;;;1.90;;
29776;SDS011;16677;52.224;7.484;2023-03-13T11:27:16;8.93;;;2.20;;
29776;SDS011;16677;52.224;7.484;2023-03-13T11:30:05;5.77;;;1.60;;
29776;SDS011;16677;52.224;7.484;2023-03-13T11:36:29;4.00;;;2.23;;
29776;SDS011;16677;52.224;7.484;2023-03-13T11:57:34;2.00;;;1.70;;
29776;SDS011;16677;52.224;7.484;2023-03-13T12:02:54;4.53;;;2.03;;
29776;SDS011;16677;52.224;7.484;2023-03-13T12:08:22;4.33;;;1.93;;
29776;SDS011;16677;52.224;7.484;2023-03-13T12:22:35;2.13;;;1.53;;
29776;SDS011;16677;52.224;7.484;2023-03-13T12:31:13;3.80;;;1.90;;
29776;SDS011;16677;52.224;7.484;2023-03-13T12:34:21;3.25;;;2.08;;
29776;SDS011;16677;52.224;7.484;2023-03-13T12:46:40;3.63;;;1.90;;
29776;SDS011;16677;52.224;7.484;2023-03-13T12:49:38;4.10;;;1.70;;
29776;SDS011;16677;52.224;7.484;2023-03-13T12:56:14;2.45;;;1.60;;
29776;SDS011;16677;52.224;7.484;2023-03-13T12:59:07;2.85;;;1.90;;
29776;SDS011;16677;52.224;7.484;2023-03-13T13:02:01;2.70;;;1.65;;
29776;SDS011;16677;52.224;7.484;2023-03-13T13:04:54;2.40;;;1.58;;
29776;SDS011;16677;52.224;7.484;2023-03-13T13:07:26;2.53;;;1.50;;
29776;SDS011;16677;52.224;7.484;2023-03-13T13:10:02;2.30;;;1.70;;
29776;SDS011;16677;52.224;7.484;2023-03-13T13:12:46;3.10;;;1.85;;
29776;SDS011;16677;52.224;7.484;2023-03-13T13:15:46;2.40;;;1.50;;
29776;SDS011;16677;52.224;7.484;2023-03-13T13:18:43;2.20;;;1.70;;
29776;SDS011;16677;52.224;7.484;2023-03-13T13:23:41;2.55;;;1.60;;
29776;SDS011;16677;52.224;7.484;2023-03-13T13:28:59;2.80;;;1.53;;
29776;SDS011;16677;52.224;7.484;2023-03-13T13:36:59;2.42;;;1.75;;
29776;SDS011;16677;52.224;7.484;2023-03-13T13:40:15;2.08;;;1.58;;
29776;SDS011;16677;52.224;7.484;2023-03-13T14:01:47;1.90;;;1.40;;
29776;SDS011;16677;52.224;7.484;2023-03-13T14:04:36;3.05;;;1.80;;
29776;SDS011;16677;52.224;7.484;2023-03-13T14:07:11;2.90;;;1.60;;
29776;SDS011;16677;52.224;7.484;2023-03-13T14:12:36;3.30;;;1.50;;
29776;SDS011;16677;52.224;7.484;2023-03-13T14:15:14;2.50;;;1.70;;
29776;SDS011;16677;52.224;7.484;2023-03-13T14:18:11;3.13;;;1.70;;
29776;SDS011;16677;52.224;7.484;2023-03-13T14:21:02;2.23;;;1.37;;
29776;SDS011;16677;52.224;7.484;2023-03-13T14:23:44;2.85;;;1.50;;
29776;SDS011;16677;52.224;7.484;2023-03-13T14:28:40;2.47;;;1.52;;
29776;SDS011;16677;52.224;7.484;2023-03-13T14:31:09;2.78;;;1.70;;
29776;SDS011;16677;52.224;7.484;2023-03-13T14:33:58;2.72;;;1.60;;
29776;SDS011;16677;52.224;7.484;2023-03-13T14:36:28;2.42;;;1.70;;
29776;SDS011;16677;52.224;7.484;2023-03-13T14:38:57;3.08;;;1.80;;
29776;SDS011;16677;52.224;7.484;2023-03-13T14:41:30;2.83;;;1.73;;
29776;SDS011;16677;52.224;7.484;2023-03-13T14:44:23;2.27;;;1.40;;
29776;SDS011;16677;52.224;7.484;2023-03-13T14:46:56;5.57;;;1.70;;
29776;SDS011;16677;52.224;7.484;2023-03-13T14:49:26;4.47;;;1.60;;
29776;SDS011;16677;52.224;7.484;2023-03-13T14:52:00;2.45;;;1.40;;
29776;SDS011;16677;52.224;7.484;2023-03-13T14:54:33;3.47;;;2.00;;
29776;SDS011;16677;52.224;7.484;2023-03-13T14:57:04;4.75;;;1.60;;
29776;SDS011;16677;52.224;7.484;2023-03-13T14:59:36;3.45;;;1.40;;
29776;SDS011;16677;52.224;7.484;2023-03-13T15:05:01;2.90;;;1.65;;
29776;SDS011;16677;52.224;7.484;2023-03-13T15:07:39;4.13;;;1.50;;
29776;SDS011;16677;52.224;7.484;2023-03-13T15:12:58;2.05;;;1.40;;
29776;SDS011;16677;52.224;7.484;2023-03-13T15:15:41;2.95;;;1.30;;
29776;SDS011;16677;52.224;7.484;2023-03-13T15:18:27;1.75;;;1.30;;
29776;SDS011;16677;52.224;7.484;2023-03-13T15:23:39;2.10;;;1.48;;
29776;SDS011;16677;52.224;7.484;2023-03-13T15:26:07;2.20;;;1.45;;
29776;SDS011;16677;52.224;7.484;2023-03-13T15:28:36;2.25;;;1.40;;
29776;SDS011;16677;52.224;7.484;2023-03-13T15:31:03;4.55;;;2.00;;
29776;SDS011;16677;52.224;7.484;2023-03-13T15:33:34;3.63;;;1.70;;
29776;SDS011;16677;52.224;7.484;2023-03-13T15:36:01;3.35;;;1.63;;
29776;SDS011;16677;52.224;7.484;2023-03-13T15:38:28;2.65;;;1.55;;
29776;SDS011;16677;52.224;7.484;2023-03-13T15:40:56;3.37;;;1.63;;
29776;SDS011;16677;52.224;7.484;2023-03-13T15:43:25;3.20;;;1.50;;
29776;SDS011;16677;52.224;7.484;2023-03-13T15:45:53;3.43;;;1.70;;
29776;SDS011;16677;52.224;7.484;2023-03-13T15:48:22;3.45;;;1.70;;
29776;SDS011;16677;52.224;7.484;2023-03-13T15:50:59;2.70;;;1.55;;
29776;SDS011;16677;52.224;7.484;2023-03-13T15:53:44;4.15;;;1.70;;
29776;SDS011;16677;52.224;7.484;2023-03-13T15:56:16;2.30;;;1.45;;
29776;SDS011;16677;52.224;7.484;2023-03-13T15:58:52;2.67;;;1.40;;
29776;SDS011;16677;52.224;7.484;2023-03-13T16:01:23;4.10;;;1.60;;
29776;SDS011;16677;52.224;7.484;2023-03-13T16:03:51;3.63;;;1.90;;
29776;SDS011;16677;52.224;7.484;2023-03-13T16:06:21;3.15;;;1.80;;
29776;SDS011;16677;52.224;7.484;2023-03-13T16:09:01;2.70;;;1.50;;
29776;SDS011;16677;52.224;7.484;2023-03-13T16:11:32;3.85;;;1.60;;
29776;SDS011;16677;52.224;7.484;2023-03-13T16:14:01;2.70;;;1.70;;
29776;SDS011;16677;52.224;7.484;2023-03-13T16:16:33;3.10;;;1.50;;
29776;SDS011;16677;52.224;7.484;2023-03-13T16:19:03;3.10;;;1.55;;
29776;SDS011;16677;52.224;7.484;2023-03-13T16:21:33;4.60;;;2.17;;
29776;SDS011;16677;52.224;7.484;2023-03-13T16:24:01;3.77;;;2.50;;
29776;SDS011;16677;52.224;7.484;2023-03-13T16:26:29;2.97;;;1.98;;
29776;SDS011;16677;52.224;7.484;2023-03-13T16:28:57;3.25;;;2.08;;
29776;SDS011;16677;52.224;7.484;2023-03-13T16:31:28;1.80;;;1.50;;
29776;SDS011;16677;52.224;7.484;2023-03-13T16:33:59;2.70;;;1.52;;
29776;SDS011;16677;52.224;7.484;2023-03-13T16:36:30;3.00;;;1.80;;
29776;SDS011;16677;52.224;7.484;2023-03-13T16:39:02;3.10;;;1.65;;
29776;SDS011;16677;52.224;7.484;2023-03-13T16:41:34;3.03;;;1.70;;
29776;SDS011;16677;52.224;7.484;2023-03-13T16:44:01;2.60;;;1.65;;
29776;SDS011;16677;52.224;7.484;2023-03-13T16:46:32;3.55;;;1.60;;
29776;SDS011;16677;52.224;7.484;2023-03-13T16:49:06;2.77;;;1.70;;
29776;SDS011;16677;52.224;7.484;2023-03-13T16:51:40;3.55;;;1.70;;
29776;SDS011;16677;52.224;7.484;2023-03-13T16:54:07;3.38;;;1.73;;
29776;SDS011;16677;52.224;7.484;2023-03-13T16:56:38;2.20;;;1.70;;
29776;SDS011;16677;52.224;7.484;2023-03-13T16:59:17;2.50;;;1.70;;
29776;SDS011;16677;52.224;7.484;2023-03-13T17:01:44;3.60;;;1.80;;
29776;SDS011;16677;52.224;7.484;2023-03-13T17:04:12;4.70;;;2.00;;
29776;SDS011;16677;52.224;7.484;2023-03-13T17:06:40;3.65;;;1.90;;
29776;SDS011;16677;52.224;7.484;2023-03-13T17:09:11;3.88;;;2.00;;
29776;SDS011;16677;52.224;7.484;2023-03-13T17:11:46;3.83;;;2.25;;
29776;SDS011;16677;52.224;7.484;2023-03-13T17:14:14;4.82;;;2.50;;
29776;SDS011;16677;52.224;7.484;2023-03-13T17:16:42;4.63;;;3.20;;
29776;SDS011;16677;52.224;7.484;2023-03-13T17:19:14;5.50;;;3.60;;
29776;SDS011;16677;52.224;7.484;2023-03-13T17:21:42;7.67;;;3.43;;
29776;SDS011;16677;52.224;7.484;2023-03-13T17:24:09;4.47;;;2.58;;
29776;SDS011;16677;52.224;7.484;2023-03-13T17:26:38;4.28;;;2.70;;
29776;SDS011;16677;52.224;7.484;2023-03-13T17:29:06;4.57;;;2.00;;
29776;SDS011;16677;52.224;7.484;2023-03-13T17:31:41;3.03;;;1.73;;
29776;SDS011;16677;52.224;7.484;2023-03-13T17:34:09;2.67;;;1.80;;
29776;SDS011;16677;52.224;7.484;2023-03-13T17:36:45;4.30;;;2.30;;